Time;durP1;ratioP1;P1;durP2;ratioP2;P2;SDS_P1;SDS_P2;PMS_P1;PMS_P2;Temp;Humidity;BMP_temperature;BMP_pressure;BME280_temperature;BME280_humidity;BME280_pressure;Samples;Min_cycle;Max_cycle;Signal;HPM_P1;HPM_P2
2021/09/08 00:01:26;;;;;;;13.32;8.48;;;24.60;99.90;;;;;;4952920;28;20097;-88
2021/09/08 00:03:51;;;;;;;14.45;8.43;;;24.60;99.90;;;;;;4952526;28;20035;-88
2021/09/08 00:06:17;;;;;;;12.80;8.32;;;24.50;99.90;;;;;;4943982;29;20034;-88
2021/09/08 00:08:43;;;;;;;13.88;8.07;;;24.50;99.90;;;;;;4933745;29;20404;-88
2021/09/08 00:11:08;;;;;;;13.38;8.20;;;24.40;99.90;;;;;;4936631;28;20291;-88
2021/09/08 00:13:34;;;;;;;12.25;8.35;;;24.40;99.90;;;;;;4952290;28;20023;-88
2021/09/08 00:16:00;;;;;;;11.63;7.63;;;24.40;99.90;;;;;;4938669;28;20023;-88
2021/09/08 00:18:25;;;;;;;11.50;7.95;;;24.30;99.90;;;;;;4952490;28;20521;-88
2021/09/08 00:20:51;;;;;;;11.25;8.10;;;24.30;99.90;;;;;;4952157;28;20023;-88
2021/09/08 00:23:17;;;;;;;10.90;8.27;;;24.30;99.90;;;;;;4958586;28;20071;-88
2021/09/08 00:25:43;;;;;;;10.95;8.18;;;24.30;99.90;;;;;;4947244;28;20121;-88
2021/09/08 00:28:09;;;;;;;11.30;7.93;;;24.20;99.90;;;;;;4934972;29;20499;-88
2021/09/08 00:30:35;;;;;;;14.90;8.70;;;24.20;99.90;;;;;;4931425;29;20044;-88
2021/09/08 00:33:00;;;;;;;13.98;8.48;;;24.20;99.90;;;;;;4951034;28;20031;-88
2021/09/08 00:35:26;;;;;;;15.05;8.38;;;24.20;99.90;;;;;;4952395;28;20375;-86
2021/09/08 00:37:51;;;;;;;15.52;8.23;;;24.20;99.90;;;;;;4934010;29;20031;-87
2021/09/08 00:40:18;;;;;;;14.40;8.60;;;24.20;99.90;;;;;;4935056;28;20019;-87
2021/09/08 00:42:44;;;;;;;11.98;7.90;;;24.20;99.90;;;;;;4932259;29;20063;-88
2021/09/08 00:45:12;;;;;;;14.35;8.70;;;24.20;99.90;;;;;;4942734;28;20027;-87
2021/09/08 00:47:38;;;;;;;12.45;8.30;;;24.20;99.90;;;;;;4939944;29;20034;-88
2021/09/08 00:50:04;;;;;;;9.18;7.53;;;24.20;99.90;;;;;;4952186;29;20447;-88
2021/09/08 00:52:30;;;;;;;12.95;8.50;;;24.20;99.90;;;;;;4937886;28;20027;-87
2021/09/08 00:54:57;;;;;;;12.70;7.68;;;24.20;99.90;;;;;;4971126;28;20506;-87
2021/09/08 00:57:25;;;;;;;13.50;7.20;;;24.30;99.90;;;;;;4957468;28;20027;-88
2021/09/08 00:59:51;;;;;;;13.02;7.68;;;24.30;99.90;;;;;;4959793;28;20134;-88
2021/09/08 01:02:17;;;;;;;17.25;7.72;;;24.30;99.90;;;;;;4951640;29;20519;-88
2021/09/08 01:04:43;;;;;;;11.02;7.35;;;24.30;99.90;;;;;;4951759;29;20031;-88
2021/09/08 01:07:09;;;;;;;12.00;7.47;;;24.40;99.90;;;;;;4966622;28;20050;-88
2021/09/08 01:09:35;;;;;;;9.93;7.75;;;24.40;99.90;;;;;;4975127;28;20046;-88
2021/09/08 01:12:01;;;;;;;12.32;7.45;;;24.40;99.90;;;;;;4961800;28;20031;-88
2021/09/08 01:14:27;;;;;;;10.63;8.35;;;24.30;99.90;;;;;;4955509;29;20502;-88
2021/09/08 01:16:56;;;;;;;14.82;10.52;;;24.10;99.90;;;;;;4955607;29;20428;-88
2021/09/08 01:19:22;;;;;;;15.23;11.55;;;23.80;99.90;;;;;;4953940;29;20483;-88
2021/09/08 01:21:48;;;;;;;15.07;12.88;;;23.40;99.90;;;;;;4958949;28;20027;-87
2021/09/08 01:24:14;;;;;;;15.80;13.38;;;23.30;99.90;;;;;;4966365;28;20054;-88
2021/09/08 01:26:41;;;;;;;20.55;12.63;;;23.30;99.90;;;;;;4964720;28;20047;-88
2021/09/08 01:29:08;;;;;;;15.93;13.00;;;23.20;99.90;;;;;;4970151;28;20433;-88
2021/09/08 01:31:35;;;;;;;15.95;12.07;;;23.30;99.90;;;;;;4937942;29;20034;-88
2021/09/08 01:34:00;;;;;;;15.05;11.30;;;23.50;99.90;;;;;;4955079;29;20019;-88
2021/09/08 01:36:26;;;;;;;16.80;11.07;;;23.50;99.90;;;;;;4934719;29;20031;-88
2021/09/08 01:38:52;;;;;;;15.80;10.52;;;23.50;99.90;;;;;;4947998;29;20024;-88
2021/09/08 01:41:18;;;;;;;15.95;11.20;;;23.60;99.90;;;;;;4955088;29;20506;-87
2021/09/08 01:43:47;;;;;;;15.38;11.30;;;23.50;99.90;;;;;;4937751;29;20055;-88
2021/09/08 01:46:23;;;;;;;15.98;11.15;;;23.50;99.90;;;;;;4954739;29;20126;-88
2021/09/08 01:48:49;;;;;;;20.42;11.88;;;23.40;99.90;;;;;;4940303;29;20111;-88
2021/09/08 01:51:15;;;;;;;15.52;12.30;;;23.20;99.90;;;;;;4939002;28;20031;-88
2021/09/08 01:53:42;;;;;;;13.68;12.20;;;22.90;99.90;;;;;;4921988;29;20504;-88
2021/09/08 01:56:08;;;;;;;13.35;12.02;;;22.70;99.90;;;;;;4937608;29;20031;-88
2021/09/08 01:58:35;;;;;;;15.35;13.13;;;22.50;99.90;;;;;;4937627;29;20078;-88
2021/09/08 02:01:00;;;;;;;15.27;13.68;;;22.30;99.90;;;;;;4937358;29;20078;-88
2021/09/08 02:03:26;;;;;;;16.70;13.68;;;22.20;99.90;;;;;;4954754;28;20027;-87
2021/09/08 02:05:52;;;;;;;18.00;15.77;;;22.10;99.90;;;;;;4941015;28;20039;-88
2021/09/08 02:08:17;;;;;;;20.83;17.25;;;21.90;99.90;;;;;;4954707;28;20051;-87
2021/09/08 02:10:43;;;;;;;25.30;17.98;;;21.70;99.90;;;;;;4954566;28;20056;-88
2021/09/08 02:13:09;;;;;;;24.75;17.67;;;21.60;99.90;;;;;;4954695;28;20299;-88
2021/09/08 02:15:35;;;;;;;27.45;18.35;;;21.50;99.90;;;;;;4954593;28;20031;-88
2021/09/08 02:18:01;;;;;;;31.65;19.25;;;21.60;99.90;;;;;;4948167;28;20015;-87
2021/09/08 02:20:27;;;;;;;34.03;19.73;;;21.70;99.90;;;;;;4935508;29;20027;-88
2021/09/08 02:22:52;;;;;;;43.92;21.13;;;21.70;99.90;;;;;;4938635;28;20031;-88
2021/09/08 02:25:18;;;;;;;43.63;22.23;;;21.60;99.90;;;;;;4953910;28;20082;-88
2021/09/08 02:27:44;;;;;;;42.17;21.58;;;21.50;99.90;;;;;;4940843;28;20027;-88
2021/09/08 02:30:10;;;;;;;46.33;23.05;;;21.40;99.90;;;;;;4954311;28;20426;-87
2021/09/08 02:32:36;;;;;;;40.00;21.52;;;21.40;99.90;;;;;;4954198;28;20573;-88
2021/09/08 02:35:03;;;;;;;51.47;24.48;;;21.30;99.90;;;;;;4936958;29;20035;-87
2021/09/08 02:37:29;;;;;;;38.28;21.92;;;21.20;99.90;;;;;;4954249;28;20128;-88
2021/09/08 02:39:54;;;;;;;45.50;22.65;;;21.10;99.90;;;;;;4954291;28;20090;-87
2021/09/08 02:42:20;;;;;;;37.78;20.92;;;21.00;99.90;;;;;;4954132;28;20047;-87
2021/09/08 02:44:46;;;;;;;33.83;18.50;;;21.00;99.90;;;;;;4953708;28;20042;-88
2021/09/08 02:47:12;;;;;;;30.85;18.55;;;21.00;99.90;;;;;;4951359;28;20130;-87
2021/09/08 02:49:38;;;;;;;25.65;16.38;;;21.00;99.90;;;;;;4934632;29;20027;-88
2021/09/08 02:52:04;;;;;;;25.58;16.17;;;20.90;99.90;;;;;;4926888;29;20023;-88
2021/09/08 02:54:30;;;;;;;23.77;14.85;;;20.90;99.90;;;;;;4954242;29;20438;-88
2021/09/08 02:56:56;;;;;;;19.15;13.82;;;20.80;99.90;;;;;;4943296;29;20481;-87
2021/09/08 02:59:21;;;;;;;22.30;14.70;;;20.80;99.90;;;;;;4951248;29;20026;-88
2021/09/08 03:01:47;;;;;;;20.85;14.35;;;20.90;99.90;;;;;;4954192;29;20089;-87
2021/09/08 03:04:12;;;;;;;26.48;14.50;;;20.90;99.90;;;;;;4952822;29;20033;-87
2021/09/08 03:06:38;;;;;;;27.27;14.20;;;20.90;99.90;;;;;;4940879;29;20114;-88
2021/09/08 03:09:04;;;;;;;26.45;15.85;;;21.00;99.90;;;;;;4953745;29;20034;-87
2021/09/08 03:11:30;;;;;;;22.40;14.43;;;21.00;99.90;;;;;;4953697;29;20291;-88
2021/09/08 03:13:55;;;;;;;27.00;14.38;;;21.10;99.90;;;;;;4953779;29;20399;-88
2021/09/08 03:16:21;;;;;;;22.00;14.73;;;21.10;99.90;;;;;;4953375;29;20468;-88
2021/09/08 03:18:47;;;;;;;22.38;13.73;;;21.10;99.90;;;;;;4931884;29;20463;-87
2021/09/08 03:21:13;;;;;;;19.92;14.30;;;21.20;99.90;;;;;;4929703;29;20059;-87
2021/09/08 03:23:39;;;;;;;19.48;12.45;;;21.20;99.90;;;;;;4939785;28;20031;-87
2021/09/08 03:26:05;;;;;;;19.55;13.32;;;21.20;99.90;;;;;;4952831;28;20092;-88
2021/09/08 03:28:31;;;;;;;19.67;11.77;;;21.40;99.90;;;;;;4923281;29;20027;-88
2021/09/08 03:30:56;;;;;;;21.35;13.73;;;21.50;99.90;;;;;;4952726;28;20495;-87
2021/09/08 03:33:22;;;;;;;20.80;13.68;;;21.50;99.90;;;;;;4953119;28;20025;-88
2021/09/08 03:35:48;;;;;;;23.10;13.93;;;21.40;99.90;;;;;;4943381;28;20034;-88
2021/09/08 03:38:14;;;;;;;24.88;14.82;;;21.50;99.90;;;;;;4949521;28;20035;-89
2021/09/08 03:40:39;;;;;;;19.65;14.13;;;21.40;99.90;;;;;;4934360;29;20119;-87
2021/09/08 03:43:05;;;;;;;20.50;14.52;;;21.40;99.90;;;;;;4937062;29;20082;-87
2021/09/08 03:45:31;;;;;;;21.50;14.20;;;21.40;99.90;;;;;;4943967;29;20054;-88
2021/09/08 03:47:56;;;;;;;20.60;13.73;;;21.20;99.90;;;;;;4943685;29;20054;-88
2021/09/08 03:50:22;;;;;;;23.73;14.82;;;21.20;99.90;;;;;;4923500;29;20111;-87
2021/09/08 03:52:50;;;;;;;21.42;13.77;;;21.20;99.90;;;;;;4934171;28;20078;-87
2021/09/08 03:55:16;;;;;;;22.05;14.23;;;21.20;99.90;;;;;;4939498;28;20038;-87
2021/09/08 03:57:41;;;;;;;21.92;14.05;;;21.20;99.90;;;;;;4950778;28;20059;-88
2021/09/08 04:00:09;;;;;;;19.80;13.57;;;21.20;99.90;;;;;;4933459;29;20537;-88
2021/09/08 04:02:36;;;;;;;20.95;13.57;;;21.20;99.90;;;;;;4933593;29;20023;-87
2021/09/08 04:05:02;;;;;;;15.57;12.23;;;21.20;99.90;;;;;;4934837;28;20051;-87
2021/09/08 04:07:27;;;;;;;16.40;12.52;;;21.20;99.90;;;;;;4951787;28;20039;-88
2021/09/08 04:09:54;;;;;;;15.02;11.73;;;21.30;99.90;;;;;;4940162;28;20030;-87
2021/09/08 04:12:20;;;;;;;18.30;13.77;;;21.30;99.90;;;;;;4952570;28;20251;-88
2021/09/08 04:14:46;;;;;;;18.77;13.98;;;21.30;99.90;;;;;;4952256;28;20094;-87
2021/09/08 04:17:11;;;;;;;17.83;13.55;;;21.30;99.90;;;;;;4941882;28;20115;-87
2021/09/08 04:19:37;;;;;;;17.15;14.07;;;21.40;99.90;;;;;;4949370;28;20156;-87
2021/09/08 04:22:03;;;;;;;18.08;15.70;;;21.50;99.90;;;;;;4952480;28;20042;-88
2021/09/08 04:24:29;;;;;;;21.42;16.80;;;21.70;99.90;;;;;;4952481;28;20582;-87
2021/09/08 04:26:55;;;;;;;22.70;18.02;;;21.70;99.90;;;;;;4952379;28;20035;-88
2021/09/08 04:29:21;;;;;;;21.30;16.42;;;21.60;99.90;;;;;;4949953;28;20064;-88
2021/09/08 04:31:47;;;;;;;25.80;17.33;;;21.60;99.90;;;;;;4932793;29;20460;-87
2021/09/08 04:34:12;;;;;;;21.65;16.38;;;21.60;99.90;;;;;;4936297;29;20024;-88
2021/09/08 04:36:38;;;;;;;19.90;15.93;;;21.50;99.90;;;;;;4945936;29;20027;-88
2021/09/08 04:39:04;;;;;;;18.65;16.05;;;21.60;99.90;;;;;;4931634;29;20032;-87
2021/09/08 04:41:30;;;;;;;18.90;15.95;;;21.60;99.90;;;;;;4932779;29;20492;-88
2021/09/08 04:43:56;;;;;;;18.35;15.63;;;21.60;99.90;;;;;;4936088;29;20102;-88
2021/09/08 04:46:22;;;;;;;20.45;16.65;;;21.60;99.90;;;;;;4942777;29;20118;-87
2021/09/08 04:48:48;;;;;;;23.30;17.65;;;21.60;99.90;;;;;;4943344;29;20102;-88
2021/09/08 04:51:13;;;;;;;22.63;16.92;;;21.60;99.90;;;;;;4947439;29;20023;-88
2021/09/08 04:53:39;;;;;;;18.25;16.05;;;21.60;99.90;;;;;;4934727;29;20038;-88
2021/09/08 04:56:05;;;;;;;21.48;16.27;;;21.70;99.90;;;;;;4952083;29;20027;-88
2021/09/08 04:58:30;;;;;;;21.95;16.75;;;21.70;99.90;;;;;;4938258;29;20155;-87
2021/09/08 05:00:56;;;;;;;23.10;17.08;;;21.70;99.90;;;;;;4951784;29;20039;-87
2021/09/08 05:03:22;;;;;;;19.73;16.75;;;21.70;99.90;;;;;;4951813;29;20126;-87
2021/09/08 05:05:47;;;;;;;20.98;15.77;;;21.70;99.90;;;;;;4951846;29;20170;-88
2021/09/08 05:08:13;;;;;;;21.65;16.15;;;21.70;99.90;;;;;;4951607;29;20565;-88
2021/09/08 05:10:39;;;;;;;19.67;16.45;;;21.70;99.90;;;;;;4944153;29;20491;-88
2021/09/08 05:13:05;;;;;;;19.02;16.05;;;21.70;99.90;;;;;;4932568;29;20028;-88
2021/09/08 05:15:31;;;;;;;18.55;16.55;;;21.70;99.90;;;;;;4935866;28;20028;-88
2021/09/08 05:17:56;;;;;;;20.83;15.65;;;21.70;99.90;;;;;;4950482;28;20023;-88
2021/09/08 05:20:22;;;;;;;19.90;15.73;;;21.70;99.90;;;;;;4939957;29;20029;-88
2021/09/08 05:22:48;;;;;;;17.02;15.07;;;21.70;99.90;;;;;;4966300;28;20028;-88
2021/09/08 05:25:13;;;;;;;19.63;15.65;;;21.80;99.90;;;;;;4950095;28;20024;-88
2021/09/08 05:27:39;;;;;;;23.20;17.30;;;21.70;99.90;;;;;;4951322;28;20430;-89
2021/09/08 05:30:08;;;;;;;19.55;15.60;;;21.70;99.90;;;;;;4953207;28;20019;-90
2021/09/08 05:32:34;;;;;;;24.08;16.23;;;21.60;99.90;;;;;;4944693;29;20022;-90
2021/09/08 05:35:00;;;;;;;22.88;16.52;;;21.60;99.90;;;;;;4951307;28;20107;-90
2021/09/08 05:37:25;;;;;;;20.80;15.77;;;21.50;99.90;;;;;;4953663;28;20054;-90
2021/09/08 05:39:51;;;;;;;21.73;16.55;;;21.50;99.90;;;;;;4951422;29;20465;-89
2021/09/08 05:42:17;;;;;;;21.58;16.80;;;21.50;99.90;;;;;;4951063;29;20493;-89
2021/09/08 05:44:43;;;;;;;25.33;16.63;;;21.50;99.90;;;;;;4952059;28;20082;-90
2021/09/08 05:47:09;;;;;;;23.02;18.33;;;21.50;99.90;;;;;;4952856;28;20555;-91
2021/09/08 05:49:34;;;;;;;21.00;17.08;;;21.50;99.90;;;;;;4967889;28;20031;-90
2021/09/08 05:52:00;;;;;;;24.80;19.20;;;21.50;99.90;;;;;;4936677;29;20299;-96
2021/09/08 05:54:26;;;;;;;23.42;17.42;;;21.50;99.90;;;;;;4940423;29;20102;-95
2021/09/08 05:56:52;;;;;;;22.45;16.52;;;21.50;99.90;;;;;;4945542;29;20031;-90
2021/09/08 05:59:17;;;;;;;23.58;18.10;;;21.60;99.90;;;;;;4949347;29;20113;-90
2021/09/08 06:01:43;;;;;;;24.42;17.95;;;21.60;99.90;;;;;;4946009;29;20040;-90
2021/09/08 06:04:10;;;;;;;23.23;17.30;;;21.70;99.90;;;;;;4957915;29;20090;-89
2021/09/08 06:06:35;;;;;;;22.35;17.00;;;21.70;99.90;;;;;;4957657;29;20035;-89
2021/09/08 06:09:01;;;;;;;24.40;16.70;;;21.80;99.90;;;;;;4925820;29;20097;-90
2021/09/08 06:11:27;;;;;;;25.45;18.00;;;21.80;99.90;;;;;;4956572;29;20436;-89
2021/09/08 06:13:54;;;;;;;21.63;17.40;;;21.80;99.90;;;;;;4939105;29;20039;-89
2021/09/08 06:16:23;;;;;;;23.17;16.77;;;21.80;99.90;;;;;;4956224;28;20078;-89
2021/09/08 06:18:49;;;;;;;22.55;17.15;;;21.80;99.90;;;;;;4956491;29;20027;-90
2021/09/08 06:21:16;;;;;;;24.73;17.52;;;21.90;99.90;;;;;;4948715;29;20086;-87
2021/09/08 06:23:42;;;;;;;28.88;17.65;;;22.00;99.90;;;;;;4936071;29;20027;-91
2021/09/08 06:26:07;;;;;;;23.35;16.88;;;22.00;99.90;;;;;;4935127;29;20089;-91
2021/09/08 06:28:33;;;;;;;23.38;16.15;;;22.10;99.90;;;;;;4959044;29;20078;-96
2021/09/08 06:30:59;;;;;;;22.52;16.88;;;22.10;99.90;;;;;;4937534;29;20030;-90
2021/09/08 06:33:24;;;;;;;19.80;16.20;;;22.10;99.90;;;;;;4938558;29;20034;-91
2021/09/08 06:35:50;;;;;;;26.70;16.45;;;22.20;99.90;;;;;;4940307;29;20035;-91
2021/09/08 06:38:16;;;;;;;22.58;16.63;;;22.20;99.90;;;;;;4958366;29;20027;-91
2021/09/08 06:40:42;;;;;;;22.38;16.48;;;22.30;99.90;;;;;;4957357;28;20034;-91
2021/09/08 06:43:08;;;;;;;21.67;15.75;;;22.20;99.90;;;;;;4957975;28;20086;-91
2021/09/08 06:45:34;;;;;;;24.00;16.90;;;22.40;99.90;;;;;;4956383;28;20027;-90
2021/09/08 06:48:00;;;;;;;21.63;15.60;;;22.40;99.90;;;;;;4956724;28;20065;-91
2021/09/08 06:50:26;;;;;;;21.90;15.48;;;22.50;99.90;;;;;;4956888;29;20063;-90
2021/09/08 06:52:51;;;;;;;21.58;16.40;;;22.70;99.90;;;;;;4954681;28;20036;-91
2021/09/08 06:55:17;;;;;;;26.55;16.23;;;22.90;99.90;;;;;;4939399;28;20472;-91
2021/09/08 06:57:43;;;;;;;19.55;14.50;;;23.00;99.90;;;;;;4947274;28;20539;-90
2021/09/08 07:00:09;;;;;;;22.25;15.90;;;23.10;99.90;;;;;;4947625;28;20055;-91
2021/09/08 07:02:35;;;;;;;21.92;14.98;;;23.10;99.90;;;;;;4937295;29;20023;-91
2021/09/08 07:05:02;;;;;;;23.15;15.38;;;23.20;99.90;;;;;;4935526;29;20023;-91
2021/09/08 07:07:27;;;;;;;18.58;15.93;;;23.20;99.90;;;;;;4936471;29;20423;-91
2021/09/08 07:09:53;;;;;;;20.65;14.38;;;23.20;99.90;;;;;;4940093;28;20010;-91
2021/09/08 07:12:19;;;;;;;21.17;14.75;;;23.20;99.90;;;;;;4936497;29;20502;-91
2021/09/08 07:14:45;;;;;;;15.68;13.05;;;23.30;99.90;;;;;;4935858;29;20129;-91
2021/09/08 07:17:10;;;;;;;18.75;14.32;;;23.30;99.90;;;;;;4943052;29;20042;-90
2021/09/08 07:19:37;;;;;;;17.70;14.18;;;23.20;99.90;;;;;;4947492;29;20512;-90
2021/09/08 07:22:03;;;;;;;25.02;15.10;;;23.20;99.90;;;;;;4948975;29;20074;-91
2021/09/08 07:24:29;;;;;;;20.75;14.40;;;23.10;99.90;;;;;;4953718;29;20019;-90
2021/09/08 07:26:59;;;;;;;21.17;15.63;;;23.10;99.90;;;;;;4957276;28;20058;-91
2021/09/08 07:29:25;;;;;;;17.73;14.25;;;23.20;99.90;;;;;;4939914;29;20042;-91
2021/09/08 07:31:51;;;;;;;18.27;14.65;;;23.20;99.90;;;;;;4958059;28;20484;-90
2021/09/08 07:34:19;;;;;;;23.60;14.70;;;23.20;99.90;;;;;;4957034;28;20538;-90
2021/09/08 07:36:45;;;;;;;17.25;13.48;;;23.20;99.90;;;;;;4956463;29;20031;-90
2021/09/08 07:39:11;;;;;;;20.13;14.60;;;23.20;99.90;;;;;;4954404;29;20027;-90
2021/09/08 07:41:36;;;;;;;18.15;13.98;;;23.30;99.90;;;;;;4951602;29;20180;-90
2021/09/08 07:44:02;;;;;;;18.48;12.95;;;23.40;99.90;;;;;;4967792;28;20097;-90
2021/09/08 07:46:28;;;;;;;21.17;13.30;;;23.50;99.90;;;;;;4937790;28;20098;-90
2021/09/08 07:48:53;;;;;;;18.42;13.07;;;23.60;99.90;;;;;;4953108;28;20015;-90
2021/09/08 07:51:19;;;;;;;16.80;12.25;;;23.60;99.90;;;;;;4955092;28;20043;-90
2021/09/08 07:53:45;;;;;;;20.00;12.32;;;23.60;99.90;;;;;;4956476;28;20458;-90
2021/09/08 07:56:10;;;;;;;19.48;12.70;;;23.60;99.90;;;;;;4955015;28;20415;-91
2021/09/08 07:58:37;;;;;;;20.70;14.65;;;23.60;99.90;;;;;;4953833;28;20036;-90
2021/09/08 08:01:02;;;;;;;22.20;13.77;;;23.50;99.90;;;;;;4936325;28;20510;-91
2021/09/08 08:03:28;;;;;;;18.77;13.95;;;23.40;99.90;;;;;;4954345;28;20612;-90
2021/09/08 08:05:54;;;;;;;16.85;13.02;;;23.30;99.90;;;;;;4939281;29;20467;-91
2021/09/08 08:08:20;;;;;;;19.30;12.73;;;23.30;99.90;;;;;;4955127;28;20031;-91
2021/09/08 08:10:46;;;;;;;16.48;10.98;;;23.20;99.90;;;;;;4952747;28;20075;-91
2021/09/08 08:13:16;;;;;;;13.40;11.25;;;23.40;99.90;;;;;;4943834;29;20075;-90
2021/09/08 08:15:42;;;;;;;15.63;11.35;;;23.50;99.90;;;;;;4935759;29;20029;-90
2021/09/08 08:18:08;;;;;;;17.05;11.88;;;23.60;99.90;;;;;;4938689;28;20031;-91
2021/09/08 08:20:34;;;;;;;14.25;10.80;;;23.90;99.90;;;;;;4955303;29;20031;-90
2021/09/08 08:22:59;;;;;;;17.48;11.18;;;23.80;99.90;;;;;;4943432;29;20038;-91
2021/09/08 08:25:28;;;;;;;15.18;10.90;;;23.90;99.90;;;;;;4954187;29;20030;-90
2021/09/08 08:27:56;;;;;;;13.10;9.73;;;23.90;99.90;;;;;;4953824;29;20055;-91
2021/09/08 08:30:22;;;;;;;15.02;11.02;;;24.10;99.90;;;;;;4953123;29;20030;-91
2021/09/08 08:32:55;;;;;;;12.90;10.23;;;24.20;99.90;;;;;;4955854;28;20711;-91
2021/09/08 08:35:21;;;;;;;14.18;11.18;;;24.30;99.90;;;;;;4936017;29;20039;-90
2021/09/08 08:37:51;;;;;;;23.75;12.15;;;24.30;99.90;;;;;;4954862;28;20019;-90
2021/09/08 08:40:17;;;;;;;20.65;13.18;;;24.40;99.90;;;;;;4952242;29;20024;-90
2021/09/08 08:42:44;;;;;;;19.65;13.85;;;24.30;99.90;;;;;;4939259;29;20407;-90
2021/09/08 08:45:11;;;;;;;19.35;13.88;;;24.20;99.90;;;;;;4941042;29;20554;-90
2021/09/08 08:47:37;;;;;;;20.33;13.95;;;24.00;99.90;;;;;;4941143;28;20131;-89
2021/09/08 08:50:08;;;;;;;20.92;13.45;;;23.90;99.90;;;;;;4951085;28;20030;-90
2021/09/08 08:52:34;;;;;;;22.30;13.35;;;23.80;99.90;;;;;;4940718;28;20059;-90
2021/09/08 08:55:00;;;;;;;22.75;13.80;;;23.80;99.90;;;;;;4952549;28;20027;-90
2021/09/08 08:57:27;;;;;;;20.75;13.15;;;23.90;99.90;;;;;;4937346;29;20448;-90
2021/09/08 08:59:53;;;;;;;17.73;12.25;;;23.70;99.90;;;;;;4944272;28;20027;-90
2021/09/08 09:02:21;;;;;;;19.65;12.50;;;23.80;99.90;;;;;;4947752;28;20014;-90
2021/09/08 09:04:48;;;;;;;20.83;12.98;;;23.80;99.90;;;;;;4935272;29;20034;-90
2021/09/08 09:07:31;;;;;;;19.83;12.25;;;23.70;99.90;;;;;;4951177;28;20039;-90
2021/09/08 09:10:09;;;;;;;17.38;12.57;;;23.70;99.90;;;;;;4951423;28;20046;-90
2021/09/08 09:12:38;;;;;;;23.15;13.45;;;23.80;99.90;;;;;;4939123;28;20529;-91
2021/09/08 09:15:16;;;;;;;20.23;13.77;;;23.60;99.90;;;;;;4953057;28;20023;-89
2021/09/08 09:17:43;;;;;;;18.75;12.57;;;23.30;99.90;;;;;;4951592;28;20046;-90
2021/09/08 09:20:23;;;;;;;15.45;12.85;;;23.30;99.90;;;;;;4953116;28;20023;-90
2021/09/08 09:22:53;;;;;;;19.10;12.85;;;23.40;99.90;;;;;;4937973;28;20079;-90
2021/09/08 09:25:32;;;;;;;17.85;12.60;;;23.30;99.90;;;;;;4934303;29;20531;-90
2021/09/08 09:28:03;;;;;;;16.67;12.18;;;23.20;99.90;;;;;;4954576;28;20046;-90
2021/09/08 09:30:41;;;;;;;13.18;11.18;;;23.30;99.90;;;;;;4951203;28;20051;-90
2021/09/08 09:33:07;;;;;;;14.05;12.50;;;23.50;99.90;;;;;;4952199;28;20086;-90
2021/09/08 09:35:33;;;;;;;16.55;12.57;;;23.70;99.90;;;;;;4955444;28;20032;-90
2021/09/08 09:38:05;;;;;;;16.55;11.57;;;23.90;99.90;;;;;;4954629;29;20392;-90
2021/09/08 09:40:35;;;;;;;16.33;11.20;;;24.00;99.90;;;;;;4955123;28;20063;-90
2021/09/08 09:43:05;;;;;;;18.80;12.25;;;24.00;99.90;;;;;;4953474;28;20102;-90
2021/09/08 09:45:36;;;;;;;14.20;10.20;;;24.00;99.90;;;;;;4950499;28;20034;-90
2021/09/08 09:48:03;;;;;;;14.82;10.88;;;24.40;99.90;;;;;;4922048;29;20035;-90
2021/09/08 09:50:30;;;;;;;14.70;11.68;;;24.70;99.90;;;;;;4935020;29;20118;-90
2021/09/08 09:52:58;;;;;;;15.35;11.50;;;24.50;99.90;;;;;;4944205;29;20039;-90
2021/09/08 09:55:26;;;;;;;18.35;13.20;;;24.40;99.90;;;;;;4955498;28;20024;-90
2021/09/08 09:57:53;;;;;;;18.58;13.25;;;24.40;99.90;;;;;;4937899;29;20042;-90
2021/09/08 10:00:20;;;;;;;15.63;12.07;;;24.30;99.90;;;;;;4935763;29;20024;-90
2021/09/08 10:02:47;;;;;;;24.17;14.00;;;24.30;99.90;;;;;;4945529;29;20195;-90
2021/09/08 10:05:14;;;;;;;20.48;14.80;;;24.10;99.90;;;;;;4956832;28;20011;-90
2021/09/08 10:07:40;;;;;;;18.10;13.15;;;24.20;99.90;;;;;;4954957;29;20126;-90
2021/09/08 10:10:16;;;;;;;18.05;12.65;;;24.50;99.90;;;;;;4958553;28;20004;-90
2021/09/08 10:13:07;;;;;;;20.98;13.85;;;24.70;99.90;;;;;;4957035;28;20022;-90
2021/09/08 10:15:34;;;;;;;22.30;13.55;;;24.60;99.90;;;;;;4939603;28;20032;-90
2021/09/08 10:18:10;;;;;;;15.73;11.75;;;24.40;99.90;;;;;;4941852;28;20027;-92
2021/09/08 10:20:36;;;;;;;16.05;12.18;;;24.50;99.90;;;;;;4927242;29;20110;-91
2021/09/08 10:23:07;;;;;;;34.08;15.20;;;24.70;99.90;;;;;;4938172;29;20110;-90
2021/09/08 10:25:33;;;;;;;26.27;12.85;;;24.60;99.90;;;;;;4953545;29;20527;-91
2021/09/08 10:28:03;;;;;;;17.52;11.85;;;24.80;99.90;;;;;;4949497;28;20027;-95
2021/09/08 10:30:39;;;;;;;17.45;13.18;;;24.90;99.90;;;;;;4957106;29;20090;-93
2021/09/08 10:33:06;;;;;;;18.38;13.85;;;24.80;99.90;;;;;;4956596;28;20034;-90
2021/09/08 10:35:39;;;;;;;19.92;13.68;;;24.70;99.90;;;;;;4937654;29;20055;-93
2021/09/08 10:38:17;;;;;;;20.42;13.50;;;24.60;99.90;;;;;;4925581;29;20034;-91
2021/09/08 10:40:45;;;;;;;15.82;12.02;;;24.80;99.90;;;;;;4957693;28;20046;-92
2021/09/08 10:43:11;;;;;;;17.67;12.57;;;25.00;99.90;;;;;;4957783;28;20055;-90
2021/09/08 10:45:49;;;;;;;16.65;12.35;;;25.00;99.90;;;;;;4956624;28;20107;-90
2021/09/08 10:48:41;;;;;;;15.63;10.48;;;25.00;99.90;;;;;;4954088;28;20074;-89
2021/09/08 10:51:21;;;;;;;13.85;9.60;;;25.20;99.90;;;;;;4937401;29;20030;-89
2021/09/08 10:54:07;;;;;;;12.35;9.05;;;25.20;99.90;;;;;;4953956;28;20027;-91
2021/09/08 10:56:46;;;;;;;16.70;9.30;;;25.30;99.90;;;;;;4953506;28;20046;-88
2021/09/08 10:59:13;;;;;;;12.23;8.80;;;25.30;99.90;;;;;;4954170;28;20019;-90
2021/09/08 11:01:40;;;;;;;13.18;8.13;;;25.30;99.90;;;;;;4954398;28;20023;-89
2021/09/08 11:04:16;;;;;;;14.18;7.50;;;25.40;99.90;;;;;;4950253;29;20527;-88
2021/09/08 11:06:48;;;;;;;13.98;7.18;;;25.50;99.90;;;;;;4935464;29;20049;-88
2021/09/08 11:09:16;;;;;;;8.38;6.47;;;25.50;99.90;;;;;;4938623;29;20038;-89
2021/09/08 11:11:53;;;;;;;9.93;6.68;;;25.50;99.90;;;;;;4951829;29;20016;-90
2021/09/08 11:14:21;;;;;;;10.90;6.07;;;25.50;99.90;;;;;;4936879;29;20542;-89
2021/09/08 11:16:46;;;;;;;12.52;6.25;;;25.40;99.90;;;;;;4954201;29;20055;-89
2021/09/08 11:19:14;;;;;;;8.63;5.20;;;25.30;99.90;;;;;;4937014;29;20062;-89
2021/09/08 11:21:40;;;;;;;17.48;9.65;;;25.50;99.90;;;;;;4946645;29;20102;-89
2021/09/08 11:24:08;;;;;;;11.30;4.63;;;25.60;99.90;;;;;;4948771;29;20035;-88
2021/09/08 11:26:37;;;;;;;8.75;4.32;;;25.70;99.90;;;;;;4954219;29;20047;-90
2021/09/08 11:29:11;;;;;;;6.47;3.60;;;25.80;99.90;;;;;;4954156;29;20062;-92
2021/09/08 11:31:46;;;;;;;8.43;3.63;;;25.60;99.90;;;;;;4964286;28;20091;-90
2021/09/08 11:34:21;;;;;;;9.75;3.67;;;25.80;99.90;;;;;;4953439;29;20031;-91
2021/09/08 11:36:52;;;;;;;8.77;2.97;;;25.70;99.90;;;;;;4941217;29;20031;-90
2021/09/08 11:39:18;;;;;;;6.57;3.03;;;25.80;99.90;;;;;;4945135;29;20012;-90
2021/09/08 11:42:02;;;;;;;5.15;2.70;;;25.80;99.90;;;;;;4956721;28;20028;-91
2021/09/08 11:44:28;;;;;;;6.35;2.50;;;25.90;99.90;;;;;;4936055;29;20034;-92
2021/09/08 11:46:54;;;;;;;7.03;3.00;;;25.90;99.90;;;;;;4937020;29;20039;-91
2021/09/08 11:49:20;;;;;;;5.25;2.10;;;26.10;99.90;;;;;;4944685;28;20023;-90
2021/09/08 11:51:47;;;;;;;5.13;1.92;;;26.20;99.90;;;;;;4960061;28;20083;-91
2021/09/08 11:54:30;;;;;;;6.75;2.40;;;26.30;99.90;;;;;;4956917;29;19999;-90
2021/09/08 11:57:01;;;;;;;6.07;2.60;;;26.40;99.90;;;;;;4941890;29;20027;-91
2021/09/08 11:59:33;;;;;;;4.93;2.30;;;26.50;99.90;;;;;;4942878;29;20484;-90
2021/09/08 12:01:59;;;;;;;5.47;2.20;;;26.60;99.90;;;;;;4956453;28;20152;-91
2021/09/08 12:04:26;;;;;;;5.55;2.03;;;26.70;99.90;;;;;;4960010;29;20013;-92
2021/09/08 12:06:58;;;;;;;7.03;2.03;;;27.00;99.90;;;;;;4944356;29;20027;-90
2021/09/08 12:09:28;;;;;;;5.18;2.45;;;27.10;99.90;;;;;;4958024;29;20307;-90
2021/09/08 12:11:57;;;;;;;3.28;2.10;;;27.10;99.90;;;;;;4960171;29;20026;-92
2021/09/08 12:14:49;;;;;;;6.72;2.80;;;27.10;99.90;;;;;;4964946;28;20016;-89
2021/09/08 12:17:20;;;;;;;5.55;2.60;;;27.10;99.90;;;;;;4956374;28;20050;-90
2021/09/08 12:19:53;;;;;;;4.75;2.33;;;26.70;99.90;;;;;;4941537;29;20562;-91
2021/09/08 12:22:19;;;;;;;6.10;2.33;;;26.60;99.90;;;;;;4963264;28;20063;-92
2021/09/08 12:24:48;;;;;;;6.25;2.30;;;26.50;99.90;;;;;;4939116;29;20023;-90
2021/09/08 12:27:29;;;;;;;5.90;2.15;;;26.70;99.90;;;;;;4955562;28;20053;-87
2021/09/08 12:29:58;;;;;;;5.28;2.08;;;26.80;99.90;;;;;;4958058;29;20027;-86
2021/09/08 12:33:02;;;;;;;5.75;2.22;;;26.90;99.90;;;;;;4937046;29;20047;-86